sensor_id;sensor_type;location;lat;lon;timestamp;P1;durP1;ratioP1;P2;durP2;ratioP2
52512;SDS011;38422;53.172;6.974;2023-08-06T00:00:25;5.78;;;4.43;;
52512;SDS011;38422;53.172;6.974;2023-08-06T00:02:51;6.18;;;3.88;;
52512;SDS011;38422;53.172;6.974;2023-08-06T00:05:17;7.97;;;4.65;;
52512;SDS011;38422;53.172;6.974;2023-08-06T00:07:48;6.78;;;4.63;;
52512;SDS011;38422;53.172;6.974;2023-08-06T00:10:14;8.48;;;5.10;;
52512;SDS011;38422;53.172;6.974;2023-08-06T00:12:40;5.32;;;4.53;;
52512;SDS011;38422;53.172;6.974;2023-08-06T00:15:06;6.82;;;5.07;;
52512;SDS011;38422;53.172;6.974;2023-08-06T00:17:33;7.80;;;5.30;;
52512;SDS011;38422;53.172;6.974;2023-08-06T00:19:59;6.43;;;4.85;;
52512;SDS011;38422;53.172;6.974;2023-08-06T00:22:34;5.78;;;4.95;;
52512;SDS011;38422;53.172;6.974;2023-08-06T00:25:01;6.80;;;5.10;;
52512;SDS011;38422;53.172;6.974;2023-08-06T00:27:28;6.43;;;5.55;;
52512;SDS011;38422;53.172;6.974;2023-08-06T00:29:54;7.07;;;5.63;;
52512;SDS011;38422;53.172;6.974;2023-08-06T00:32:19;6.47;;;5.63;;
52512;SDS011;38422;53.172;6.974;2023-08-06T00:34:45;7.30;;;5.97;;
52512;SDS011;38422;53.172;6.974;2023-08-06T00:37:11;7.05;;;6.18;;
52512;SDS011;38422;53.172;6.974;2023-08-06T00:39:37;7.72;;;5.82;;
52512;SDS011;38422;53.172;6.974;2023-08-06T00:42:03;8.00;;;6.32;;
52512;SDS011;38422;53.172;6.974;2023-08-06T00:44:29;6.93;;;6.10;;
52512;SDS011;38422;53.172;6.974;2023-08-06T00:46:55;6.57;;;5.60;;
52512;SDS011;38422;53.172;6.974;2023-08-06T00:49:21;8.82;;;6.22;;
52512;SDS011;38422;53.172;6.974;2023-08-06T00:51:47;7.60;;;5.85;;
52512;SDS011;38422;53.172;6.974;2023-08-06T00:54:12;7.85;;;6.50;;
52512;SDS011;38422;53.172;6.974;2023-08-06T00:56:39;7.03;;;6.32;;
52512;SDS011;38422;53.172;6.974;2023-08-06T00:59:06;8.60;;;6.22;;
52512;SDS011;38422;53.172;6.974;2023-08-06T01:01:32;7.50;;;6.43;;
52512;SDS011;38422;53.172;6.974;2023-08-06T01:03:58;7.15;;;6.45;;
52512;SDS011;38422;53.172;6.974;2023-08-06T01:06:30;7.68;;;6.82;;
52512;SDS011;38422;53.172;6.974;2023-08-06T01:09:15;7.25;;;6.38;;
52512;SDS011;38422;53.172;6.974;2023-08-06T01:12:18;7.45;;;6.57;;
52512;SDS011;38422;53.172;6.974;2023-08-06T01:15:16;7.45;;;6.70;;
52512;SDS011;38422;53.172;6.974;2023-08-06T01:17:48;7.43;;;6.60;;
52512;SDS011;38422;53.172;6.974;2023-08-06T01:20:15;7.78;;;6.97;;
52512;SDS011;38422;53.172;6.974;2023-08-06T01:22:40;16.20;;;7.10;;
52512;SDS011;38422;53.172;6.974;2023-08-06T01:25:06;8.90;;;6.57;;
52512;SDS011;38422;53.172;6.974;2023-08-06T01:27:48;9.00;;;7.05;;
52512;SDS011;38422;53.172;6.974;2023-08-06T01:30:18;8.82;;;6.55;;
52512;SDS011;38422;53.172;6.974;2023-08-06T01:32:50;9.63;;;6.47;;
52512;SDS011;38422;53.172;6.974;2023-08-06T01:35:22;8.30;;;7.38;;
52512;SDS011;38422;53.172;6.974;2023-08-06T01:37:50;7.88;;;6.53;;
52512;SDS011;38422;53.172;6.974;2023-08-06T01:40:16;7.68;;;6.75;;
52512;SDS011;38422;53.172;6.974;2023-08-06T01:42:42;8.05;;;6.90;;
52512;SDS011;38422;53.172;6.974;2023-08-06T01:45:08;7.18;;;6.45;;
52512;SDS011;38422;53.172;6.974;2023-08-06T01:47:34;7.47;;;6.50;;
52512;SDS011;38422;53.172;6.974;2023-08-06T01:50:00;8.23;;;7.32;;
52512;SDS011;38422;53.172;6.974;2023-08-06T01:52:26;7.55;;;6.45;;
52512;SDS011;38422;53.172;6.974;2023-08-06T01:54:52;9.57;;;6.63;;
52512;SDS011;38422;53.172;6.974;2023-08-06T01:57:18;6.95;;;6.25;;
52512;SDS011;38422;53.172;6.974;2023-08-06T01:59:44;8.55;;;6.47;;
52512;SDS011;38422;53.172;6.974;2023-08-06T02:02:09;8.32;;;6.05;;
52512;SDS011;38422;53.172;6.974;2023-08-06T02:04:35;7.55;;;5.93;;
52512;SDS011;38422;53.172;6.974;2023-08-06T02:07:01;6.68;;;5.97;;
52512;SDS011;38422;53.172;6.974;2023-08-06T02:09:26;7.90;;;5.78;;
52512;SDS011;38422;53.172;6.974;2023-08-06T02:11:52;7.90;;;6.10;;
52512;SDS011;38422;53.172;6.974;2023-08-06T02:14:18;7.70;;;5.43;;
52512;SDS011;38422;53.172;6.974;2023-08-06T02:16:43;5.85;;;5.20;;
52512;SDS011;38422;53.172;6.974;2023-08-06T02:19:09;8.13;;;6.18;;
52512;SDS011;38422;53.172;6.974;2023-08-06T02:21:35;7.60;;;5.55;;
52512;SDS011;38422;53.172;6.974;2023-08-06T02:24:01;7.95;;;5.63;;
52512;SDS011;38422;53.172;6.974;2023-08-06T02:26:30;7.60;;;5.80;;
52512;SDS011;38422;53.172;6.974;2023-08-06T02:28:55;7.45;;;5.45;;
52512;SDS011;38422;53.172;6.974;2023-08-06T02:31:21;7.88;;;5.10;;
52512;SDS011;38422;53.172;6.974;2023-08-06T02:33:47;6.63;;;5.38;;
52512;SDS011;38422;53.172;6.974;2023-08-06T02:36:13;6.18;;;5.05;;
52512;SDS011;38422;53.172;6.974;2023-08-06T02:38:38;5.75;;;4.57;;
52512;SDS011;38422;53.172;6.974;2023-08-06T02:41:04;7.93;;;5.22;;
52512;SDS011;38422;53.172;6.974;2023-08-06T02:43:30;7.55;;;5.10;;
52512;SDS011;38422;53.172;6.974;2023-08-06T02:45:57;6.00;;;4.78;;
52512;SDS011;38422;53.172;6.974;2023-08-06T02:48:23;6.05;;;5.18;;
52512;SDS011;38422;53.172;6.974;2023-08-06T02:50:49;6.10;;;5.10;;
52512;SDS011;38422;53.172;6.974;2023-08-06T02:53:14;8.50;;;5.18;;
52512;SDS011;38422;53.172;6.974;2023-08-06T02:55:44;6.88;;;5.38;;
52512;SDS011;38422;53.172;6.974;2023-08-06T02:58:12;7.88;;;5.40;;
52512;SDS011;38422;53.172;6.974;2023-08-06T03:00:39;8.00;;;5.53;;
52512;SDS011;38422;53.172;6.974;2023-08-06T03:03:04;7.20;;;5.40;;
52512;SDS011;38422;53.172;6.974;2023-08-06T03:05:30;6.70;;;5.10;;
52512;SDS011;38422;53.172;6.974;2023-08-06T03:07:56;7.72;;;5.20;;
52512;SDS011;38422;53.172;6.974;2023-08-06T03:10:21;7.50;;;5.57;;
52512;SDS011;38422;53.172;6.974;2023-08-06T03:12:47;6.93;;;5.22;;
52512;SDS011;38422;53.172;6.974;2023-08-06T03:15:13;7.03;;;5.53;;
52512;SDS011;38422;53.172;6.974;2023-08-06T03:17:39;7.25;;;5.43;;
52512;SDS011;38422;53.172;6.974;2023-08-06T03:20:05;6.68;;;5.57;;
52512;SDS011;38422;53.172;6.974;2023-08-06T03:22:31;6.32;;;5.30;;
52512;SDS011;38422;53.172;6.974;2023-08-06T03:24:57;6.82;;;5.40;;
52512;SDS011;38422;53.172;6.974;2023-08-06T03:27:23;8.13;;;5.50;;
52512;SDS011;38422;53.172;6.974;2023-08-06T03:29:49;6.60;;;5.22;;
52512;SDS011;38422;53.172;6.974;2023-08-06T03:32:17;6.30;;;5.47;;
52512;SDS011;38422;53.172;6.974;2023-08-06T03:34:43;7.32;;;5.60;;
52512;SDS011;38422;53.172;6.974;2023-08-06T03:37:09;7.18;;;6.15;;
52512;SDS011;38422;53.172;6.974;2023-08-06T03:39:34;7.57;;;6.00;;
52512;SDS011;38422;53.172;6.974;2023-08-06T03:42:00;7.40;;;6.68;;
52512;SDS011;38422;53.172;6.974;2023-08-06T03:44:26;8.82;;;6.50;;
52512;SDS011;38422;53.172;6.974;2023-08-06T03:46:53;6.82;;;6.13;;
52512;SDS011;38422;53.172;6.974;2023-08-06T03:49:19;7.35;;;6.60;;
52512;SDS011;38422;53.172;6.974;2023-08-06T03:51:44;8.95;;;6.45;;
52512;SDS011;38422;53.172;6.974;2023-08-06T03:54:11;7.57;;;6.03;;
52512;SDS011;38422;53.172;6.974;2023-08-06T03:56:36;7.80;;;6.93;;
52512;SDS011;38422;53.172;6.974;2023-08-06T03:59:02;6.88;;;6.18;;
52512;SDS011;38422;53.172;6.974;2023-08-06T04:01:28;8.45;;;6.82;;
52512;SDS011;38422;53.172;6.974;2023-08-06T04:03:53;7.07;;;6.18;;
52512;SDS011;38422;53.172;6.974;2023-08-06T04:06:19;6.82;;;5.95;;
52512;SDS011;38422;53.172;6.974;2023-08-06T04:08:45;7.38;;;6.15;;
52512;SDS011;38422;53.172;6.974;2023-08-06T04:11:10;7.95;;;6.20;;
52512;SDS011;38422;53.172;6.974;2023-08-06T04:13:37;7.13;;;6.00;;
52512;SDS011;38422;53.172;6.974;2023-08-06T04:16:03;8.63;;;6.15;;
52512;SDS011;38422;53.172;6.974;2023-08-06T04:18:29;7.68;;;6.22;;
52512;SDS011;38422;53.172;6.974;2023-08-06T04:20:55;9.50;;;5.72;;
52512;SDS011;38422;53.172;6.974;2023-08-06T04:25:48;7.45;;;6.05;;
52512;SDS011;38422;53.172;6.974;2023-08-06T04:28:14;8.68;;;5.90;;
52512;SDS011;38422;53.172;6.974;2023-08-06T04:30:39;7.90;;;5.57;;
52512;SDS011;38422;53.172;6.974;2023-08-06T04:33:05;7.22;;;5.72;;
52512;SDS011;38422;53.172;6.974;2023-08-06T04:35:31;7.75;;;5.80;;
52512;SDS011;38422;53.172;6.974;2023-08-06T04:37:56;6.45;;;5.68;;
52512;SDS011;38422;53.172;6.974;2023-08-06T04:40:22;8.68;;;6.00;;
52512;SDS011;38422;53.172;6.974;2023-08-06T04:42:48;7.43;;;5.75;;
52512;SDS011;38422;53.172;6.974;2023-08-06T04:45:13;7.40;;;5.57;;
52512;SDS011;38422;53.172;6.974;2023-08-06T04:47:39;6.30;;;5.40;;
52512;SDS011;38422;53.172;6.974;2023-08-06T04:50:05;6.85;;;5.40;;
52512;SDS011;38422;53.172;6.974;2023-08-06T04:52:31;7.45;;;5.78;;
52512;SDS011;38422;53.172;6.974;2023-08-06T04:54:57;6.43;;;4.97;;
52512;SDS011;38422;53.172;6.974;2023-08-06T04:57:23;6.38;;;5.32;;
52512;SDS011;38422;53.172;6.974;2023-08-06T04:59:49;7.75;;;5.00;;
52512;SDS011;38422;53.172;6.974;2023-08-06T05:02:15;6.57;;;5.35;;
52512;SDS011;38422;53.172;6.974;2023-08-06T05:04:41;7.80;;;4.80;;
52512;SDS011;38422;53.172;6.974;2023-08-06T05:07:10;7.47;;;5.22;;
52512;SDS011;38422;53.172;6.974;2023-08-06T05:09:35;5.97;;;5.18;;
52512;SDS011;38422;53.172;6.974;2023-08-06T05:12:01;8.23;;;5.50;;
52512;SDS011;38422;53.172;6.974;2023-08-06T05:14:29;7.35;;;5.65;;
52512;SDS011;38422;53.172;6.974;2023-08-06T05:16:54;9.27;;;5.72;;
52512;SDS011;38422;53.172;6.974;2023-08-06T05:19:20;7.10;;;5.65;;
52512;SDS011;38422;53.172;6.974;2023-08-06T05:21:46;8.70;;;5.22;;
52512;SDS011;38422;53.172;6.974;2023-08-06T05:24:11;7.30;;;5.68;;
52512;SDS011;38422;53.172;6.974;2023-08-06T05:26:37;6.40;;;5.50;;
52512;SDS011;38422;53.172;6.974;2023-08-06T05:29:03;6.50;;;5.72;;
52512;SDS011;38422;53.172;6.974;2023-08-06T05:31:28;8.93;;;5.78;;
52512;SDS011;38422;53.172;6.974;2023-08-06T05:33:54;6.60;;;5.47;;
52512;SDS011;38422;53.172;6.974;2023-08-06T05:36:20;8.15;;;5.93;;
52512;SDS011;38422;53.172;6.974;2023-08-06T05:38:46;8.40;;;5.80;;
52512;SDS011;38422;53.172;6.974;2023-08-06T05:41:12;6.57;;;5.28;;
52512;SDS011;38422;53.172;6.974;2023-08-06T05:43:38;9.07;;;5.13;;
52512;SDS011;38422;53.172;6.974;2023-08-06T05:46:04;5.65;;;5.05;;
52512;SDS011;38422;53.172;6.974;2023-08-06T05:48:29;7.00;;;5.18;;
52512;SDS011;38422;53.172;6.974;2023-08-06T05:50:57;8.27;;;5.30;;
52512;SDS011;38422;53.172;6.974;2023-08-06T05:53:23;6.25;;;5.43;;
52512;SDS011;38422;53.172;6.974;2023-08-06T05:55:49;7.35;;;5.38;;
52512;SDS011;38422;53.172;6.974;2023-08-06T05:58:15;7.07;;;5.60;;
52512;SDS011;38422;53.172;6.974;2023-08-06T06:00:41;8.75;;;6.00;;
52512;SDS011;38422;53.172;6.974;2023-08-06T06:03:07;8.38;;;5.80;;
52512;SDS011;38422;53.172;6.974;2023-08-06T06:05:33;7.85;;;6.00;;
52512;SDS011;38422;53.172;6.974;2023-08-06T06:07:58;6.53;;;5.68;;
52512;SDS011;38422;53.172;6.974;2023-08-06T06:10:24;9.40;;;5.93;;
52512;SDS011;38422;53.172;6.974;2023-08-06T06:12:50;7.38;;;5.75;;
52512;SDS011;38422;53.172;6.974;2023-08-06T06:15:16;7.93;;;5.55;;
52512;SDS011;38422;53.172;6.974;2023-08-06T06:17:41;6.90;;;5.60;;
52512;SDS011;38422;53.172;6.974;2023-08-06T06:20:07;6.18;;;5.13;;
52512;SDS011;38422;53.172;6.974;2023-08-06T06:22:33;7.15;;;5.63;;
52512;SDS011;38422;53.172;6.974;2023-08-06T06:24:59;8.05;;;5.47;;
52512;SDS011;38422;53.172;6.974;2023-08-06T06:27:24;6.65;;;5.30;;
52512;SDS011;38422;53.172;6.974;2023-08-06T06:29:50;7.63;;;5.35;;
52512;SDS011;38422;53.172;6.974;2023-08-06T06:32:17;7.13;;;5.22;;
52512;SDS011;38422;53.172;6.974;2023-08-06T06:34:43;7.97;;;5.28;;
52512;SDS011;38422;53.172;6.974;2023-08-06T06:37:08;6.03;;;4.78;;
52512;SDS011;38422;53.172;6.974;2023-08-06T06:39:34;6.72;;;5.18;;
52512;SDS011;38422;53.172;6.974;2023-08-06T06:42:00;7.55;;;5.10;;
52512;SDS011;38422;53.172;6.974;2023-08-06T06:44:25;6.35;;;4.95;;
52512;SDS011;38422;53.172;6.974;2023-08-06T06:46:51;5.75;;;4.78;;
52512;SDS011;38422;53.172;6.974;2023-08-06T06:49:17;5.70;;;4.95;;
52512;SDS011;38422;53.172;6.974;2023-08-06T06:51:42;6.30;;;5.22;;
52512;SDS011;38422;53.172;6.974;2023-08-06T06:54:08;5.55;;;4.68;;
52512;SDS011;38422;53.172;6.974;2023-08-06T06:56:34;6.82;;;5.05;;
52512;SDS011;38422;53.172;6.974;2023-08-06T06:59:00;6.95;;;4.72;;
52512;SDS011;38422;53.172;6.974;2023-08-06T07:01:25;5.60;;;4.97;;
52512;SDS011;38422;53.172;6.974;2023-08-06T07:03:51;6.72;;;4.70;;
52512;SDS011;38422;53.172;6.974;2023-08-06T07:06:17;6.45;;;4.85;;
52512;SDS011;38422;53.172;6.974;2023-08-06T07:08:43;5.60;;;4.55;;
52512;SDS011;38422;53.172;6.974;2023-08-06T07:11:09;6.82;;;4.68;;
52512;SDS011;38422;53.172;6.974;2023-08-06T07:13:35;6.18;;;4.70;;
52512;SDS011;38422;53.172;6.974;2023-08-06T07:16:01;5.65;;;4.40;;
52512;SDS011;38422;53.172;6.974;2023-08-06T07:18:27;5.50;;;4.72;;
52512;SDS011;38422;53.172;6.974;2023-08-06T07:20:54;5.07;;;4.57;;
52512;SDS011;38422;53.172;6.974;2023-08-06T07:23:20;6.35;;;4.40;;
52512;SDS011;38422;53.172;6.974;2023-08-06T07:25:47;6.28;;;4.78;;
52512;SDS011;38422;53.172;6.974;2023-08-06T07:28:14;5.68;;;4.80;;
52512;SDS011;38422;53.172;6.974;2023-08-06T07:30:40;5.45;;;4.28;;
52512;SDS011;38422;53.172;6.974;2023-08-06T07:35:33;5.20;;;4.30;;
52512;SDS011;38422;53.172;6.974;2023-08-06T07:37:59;5.30;;;4.00;;
52512;SDS011;38422;53.172;6.974;2023-08-06T07:40:25;6.07;;;4.80;;
52512;SDS011;38422;53.172;6.974;2023-08-06T07:42:51;5.43;;;4.47;;
52512;SDS011;38422;53.172;6.974;2023-08-06T07:45:16;6.68;;;4.50;;
52512;SDS011;38422;53.172;6.974;2023-08-06T07:47:42;6.35;;;4.53;;
52512;SDS011;38422;53.172;6.974;2023-08-06T07:50:08;5.03;;;4.35;;
52512;SDS011;38422;53.172;6.974;2023-08-06T07:52:34;6.32;;;4.60;;
52512;SDS011;38422;53.172;6.974;2023-08-06T07:55:00;6.88;;;4.75;;
52512;SDS011;38422;53.172;6.974;2023-08-06T07:57:30;6.00;;;4.20;;
52512;SDS011;38422;53.172;6.974;2023-08-06T07:59:59;5.22;;;4.20;;
52512;SDS011;38422;53.172;6.974;2023-08-06T08:02:26;4.82;;;4.22;;
52512;SDS011;38422;53.172;6.974;2023-08-06T08:04:51;4.55;;;3.90;;
52512;SDS011;38422;53.172;6.974;2023-08-06T08:07:18;6.80;;;4.65;;
52512;SDS011;38422;53.172;6.974;2023-08-06T08:09:43;5.85;;;4.82;;
52512;SDS011;38422;53.172;6.974;2023-08-06T08:12:09;5.95;;;4.90;;
52512;SDS011;38422;53.172;6.974;2023-08-06T08:14:35;7.93;;;4.30;;
52512;SDS011;38422;53.172;6.974;2023-08-06T08:17:05;6.80;;;4.05;;
52512;SDS011;38422;53.172;6.974;2023-08-06T08:19:31;6.00;;;4.47;;
52512;SDS011;38422;53.172;6.974;2023-08-06T08:21:57;7.63;;;4.17;;
52512;SDS011;38422;53.172;6.974;2023-08-06T08:24:23;5.30;;;4.18;;
52512;SDS011;38422;53.172;6.974;2023-08-06T08:26:52;6.35;;;4.18;;
52512;SDS011;38422;53.172;6.974;2023-08-06T08:29:21;5.35;;;4.15;;
52512;SDS011;38422;53.172;6.974;2023-08-06T08:31:48;8.63;;;3.97;;
52512;SDS011;38422;53.172;6.974;2023-08-06T08:34:18;5.28;;;3.70;;
52512;SDS011;38422;53.172;6.974;2023-08-06T08:36:44;4.82;;;3.35;;
52512;SDS011;38422;53.172;6.974;2023-08-06T08:39:12;5.53;;;3.65;;
52512;SDS011;38422;53.172;6.974;2023-08-06T08:41:38;5.50;;;3.90;;
52512;SDS011;38422;53.172;6.974;2023-08-06T08:44:04;4.25;;;3.47;;
52512;SDS011;38422;53.172;6.974;2023-08-06T08:46:37;5.30;;;3.25;;
52512;SDS011;38422;53.172;6.974;2023-08-06T08:49:05;4.55;;;3.05;;
52512;SDS011;38422;53.172;6.974;2023-08-06T08:51:32;4.30;;;3.13;;
52512;SDS011;38422;53.172;6.974;2023-08-06T08:54:00;4.88;;;2.58;;
52512;SDS011;38422;53.172;6.974;2023-08-06T08:56:28;4.03;;;2.38;;
52512;SDS011;38422;53.172;6.974;2023-08-06T08:58:54;6.45;;;2.35;;
52512;SDS011;38422;53.172;6.974;2023-08-06T09:01:21;6.80;;;2.13;;
52512;SDS011;38422;53.172;6.974;2023-08-06T09:03:47;2.50;;;1.90;;
52512;SDS011;38422;53.172;6.974;2023-08-06T09:06:13;2.67;;;1.33;;
52512;SDS011;38422;53.172;6.974;2023-08-06T09:11:29;1.83;;;1.20;;
52512;SDS011;38422;53.172;6.974;2023-08-06T09:14:04;2.63;;;1.23;;
52512;SDS011;38422;53.172;6.974;2023-08-06T09:16:33;2.35;;;1.35;;
52512;SDS011;38422;53.172;6.974;2023-08-06T09:19:12;1.98;;;1.30;;
52512;SDS011;38422;53.172;6.974;2023-08-06T09:24:09;3.30;;;1.45;;
52512;SDS011;38422;53.172;6.974;2023-08-06T09:26:40;1.50;;;1.20;;
52512;SDS011;38422;53.172;6.974;2023-08-06T09:29:07;1.08;;;0.88;;
52512;SDS011;38422;53.172;6.974;2023-08-06T09:31:40;1.77;;;1.13;;
52512;SDS011;38422;53.172;6.974;2023-08-06T09:34:10;1.88;;;1.10;;
52512;SDS011;38422;53.172;6.974;2023-08-06T09:36:47;1.20;;;1.00;;
52512;SDS011;38422;53.172;6.974;2023-08-06T09:39:16;3.28;;;1.20;;
52512;SDS011;38422;53.172;6.974;2023-08-06T09:46:51;1.70;;;1.10;;
52512;SDS011;38422;53.172;6.974;2023-08-06T09:49:25;1.35;;;0.80;;
52512;SDS011;38422;53.172;6.974;2023-08-06T09:51:57;2.30;;;0.90;;
52512;SDS011;38422;53.172;6.974;2023-08-06T09:54:25;1.52;;;0.82;;
52512;SDS011;38422;53.172;6.974;2023-08-06T09:56:55;1.50;;;1.10;;
52512;SDS011;38422;53.172;6.974;2023-08-06T09:59:22;1.45;;;1.00;;
52512;SDS011;38422;53.172;6.974;2023-08-06T10:01:48;1.73;;;1.00;;
52512;SDS011;38422;53.172;6.974;2023-08-06T10:04:14;1.23;;;0.80;;
52512;SDS011;38422;53.172;6.974;2023-08-06T10:06:43;2.05;;;1.02;;
52512;SDS011;38422;53.172;6.974;2023-08-06T10:09:12;1.02;;;0.70;;
52512;SDS011;38422;53.172;6.974;2023-08-06T10:11:38;1.45;;;1.10;;
52512;SDS011;38422;53.172;6.974;2023-08-06T10:14:15;1.50;;;0.90;;
52512;SDS011;38422;53.172;6.974;2023-08-06T10:16:45;1.45;;;0.93;;
52512;SDS011;38422;53.172;6.974;2023-08-06T10:19:12;0.80;;;0.80;;
52512;SDS011;38422;53.172;6.974;2023-08-06T10:21:40;1.25;;;0.73;;
52512;SDS011;38422;53.172;6.974;2023-08-06T10:24:06;1.03;;;0.80;;
52512;SDS011;38422;53.172;6.974;2023-08-06T10:26:35;1.50;;;1.08;;
52512;SDS011;38422;53.172;6.974;2023-08-06T10:29:01;2.65;;;0.80;;
52512;SDS011;38422;53.172;6.974;2023-08-06T10:32:03;1.23;;;0.80;;
52512;SDS011;38422;53.172;6.974;2023-08-06T10:37:37;2.45;;;0.90;;
52512;SDS011;38422;53.172;6.974;2023-08-06T10:40:03;0.68;;;0.68;;
52512;SDS011;38422;53.172;6.974;2023-08-06T10:42:32;1.92;;;0.80;;
52512;SDS011;38422;53.172;6.974;2023-08-06T10:45:14;1.40;;;0.87;;
52512;SDS011;38422;53.172;6.974;2023-08-06T10:47:41;4.43;;;1.52;;
52512;SDS011;38422;53.172;6.974;2023-08-06T10:50:10;2.13;;;0.90;;
52512;SDS011;38422;53.172;6.974;2023-08-06T10:52:38;4.07;;;1.00;;
52512;SDS011;38422;53.172;6.974;2023-08-06T10:55:04;2.83;;;1.00;;
52512;SDS011;38422;53.172;6.974;2023-08-06T10:57:30;3.05;;;1.13;;
52512;SDS011;38422;53.172;6.974;2023-08-06T10:59:55;2.53;;;1.00;;
52512;SDS011;38422;53.172;6.974;2023-08-06T11:02:21;1.63;;;1.00;;
52512;SDS011;38422;53.172;6.974;2023-08-06T11:04:47;1.43;;;0.83;;
52512;SDS011;38422;53.172;6.974;2023-08-06T11:07:13;1.50;;;0.95;;
52512;SDS011;38422;53.172;6.974;2023-08-06T11:09:39;1.30;;;0.70;;
52512;SDS011;38422;53.172;6.974;2023-08-06T11:12:11;1.17;;;0.67;;
52512;SDS011;38422;53.172;6.974;2023-08-06T11:14:37;1.63;;;0.80;;
52512;SDS011;38422;53.172;6.974;2023-08-06T11:17:04;2.08;;;0.90;;
52512;SDS011;38422;53.172;6.974;2023-08-06T11:19:30;2.60;;;1.10;;
52512;SDS011;38422;53.172;6.974;2023-08-06T11:21:56;1.30;;;0.90;;
52512;SDS011;38422;53.172;6.974;2023-08-06T11:24:23;1.50;;;0.83;;
52512;SDS011;38422;53.172;6.974;2023-08-06T11:26:49;1.50;;;0.90;;
52512;SDS011;38422;53.172;6.974;2023-08-06T11:29:15;1.57;;;0.80;;
52512;SDS011;38422;53.172;6.974;2023-08-06T11:31:41;1.30;;;1.00;;
52512;SDS011;38422;53.172;6.974;2023-08-06T11:34:07;1.60;;;0.73;;
52512;SDS011;38422;53.172;6.974;2023-08-06T11:36:33;2.10;;;0.90;;
52512;SDS011;38422;53.172;6.974;2023-08-06T11:39:02;2.33;;;0.90;;
52512;SDS011;38422;53.172;6.974;2023-08-06T11:41:30;1.92;;;0.90;;
52512;SDS011;38422;53.172;6.974;2023-08-06T11:44:03;2.30;;;0.93;;
52512;SDS011;38422;53.172;6.974;2023-08-06T11:46:29;2.70;;;1.17;;
52512;SDS011;38422;53.172;6.974;2023-08-06T11:49:14;1.70;;;0.90;;
52512;SDS011;38422;53.172;6.974;2023-08-06T11:51:40;1.87;;;0.80;;
52512;SDS011;38422;53.172;6.974;2023-08-06T11:54:05;0.97;;;0.90;;
52512;SDS011;38422;53.172;6.974;2023-08-06T11:56:32;1.60;;;0.70;;
52512;SDS011;38422;53.172;6.974;2023-08-06T11:58:58;1.23;;;0.97;;
52512;SDS011;38422;53.172;6.974;2023-08-06T12:01:23;2.77;;;0.90;;
52512;SDS011;38422;53.172;6.974;2023-08-06T12:03:50;1.33;;;0.90;;
52512;SDS011;38422;53.172;6.974;2023-08-06T12:06:16;2.43;;;0.90;;
52512;SDS011;38422;53.172;6.974;2023-08-06T12:08:42;1.57;;;0.80;;
52512;SDS011;38422;53.172;6.974;2023-08-06T12:11:07;2.43;;;1.03;;
52512;SDS011;38422;53.172;6.974;2023-08-06T12:13:34;1.48;;;0.88;;
52512;SDS011;38422;53.172;6.974;2023-08-06T12:15:59;2.73;;;0.97;;
52512;SDS011;38422;53.172;6.974;2023-08-06T12:18:25;0.83;;;0.77;;
52512;SDS011;38422;53.172;6.974;2023-08-06T12:20:51;1.57;;;0.90;;
52512;SDS011;38422;53.172;6.974;2023-08-06T12:23:17;1.23;;;0.90;;
52512;SDS011;38422;53.172;6.974;2023-08-06T12:25:43;1.80;;;0.90;;
52512;SDS011;38422;53.172;6.974;2023-08-06T12:30:35;1.10;;;0.80;;
52512;SDS011;38422;53.172;6.974;2023-08-06T12:33:01;0.80;;;0.80;;
52512;SDS011;38422;53.172;6.974;2023-08-06T12:35:27;1.57;;;0.90;;
52512;SDS011;38422;53.172;6.974;2023-08-06T12:37:52;1.33;;;0.80;;
52512;SDS011;38422;53.172;6.974;2023-08-06T12:40:20;1.13;;;0.70;;
52512;SDS011;38422;53.172;6.974;2023-08-06T12:42:46;1.20;;;0.80;;
52512;SDS011;38422;53.172;6.974;2023-08-06T12:45:11;3.90;;;0.90;;
52512;SDS011;38422;53.172;6.974;2023-08-06T12:47:37;1.43;;;0.90;;
52512;SDS011;38422;53.172;6.974;2023-08-06T12:50:03;1.37;;;0.87;;
52512;SDS011;38422;53.172;6.974;2023-08-06T12:52:29;0.90;;;0.80;;
52512;SDS011;38422;53.172;6.974;2023-08-06T12:54:55;1.40;;;0.80;;
52512;SDS011;38422;53.172;6.974;2023-08-06T12:57:20;1.77;;;0.90;;
52512;SDS011;38422;53.172;6.974;2023-08-06T12:59:46;0.97;;;0.80;;
52512;SDS011;38422;53.172;6.974;2023-08-06T13:02:13;2.03;;;0.90;;
52512;SDS011;38422;53.172;6.974;2023-08-06T13:04:39;2.80;;;0.97;;
52512;SDS011;38422;53.172;6.974;2023-08-06T13:07:04;1.50;;;0.90;;
52512;SDS011;38422;53.172;6.974;2023-08-06T13:09:31;1.27;;;0.93;;
52512;SDS011;38422;53.172;6.974;2023-08-06T13:11:58;1.38;;;1.00;;
52512;SDS011;38422;53.172;6.974;2023-08-06T13:14:25;1.33;;;0.80;;
52512;SDS011;38422;53.172;6.974;2023-08-06T13:16:51;1.30;;;1.02;;
52512;SDS011;38422;53.172;6.974;2023-08-06T13:19:16;1.93;;;0.90;;
52512;SDS011;38422;53.172;6.974;2023-08-06T13:24:11;1.45;;;1.10;;
52512;SDS011;38422;53.172;6.974;2023-08-06T13:26:37;1.70;;;1.10;;
52512;SDS011;38422;53.172;6.974;2023-08-06T13:29:03;1.05;;;0.75;;
52512;SDS011;38422;53.172;6.974;2023-08-06T13:31:29;2.50;;;1.00;;
52512;SDS011;38422;53.172;6.974;2023-08-06T13:33:55;2.27;;;0.90;;
52512;SDS011;38422;53.172;6.974;2023-08-06T13:36:23;1.65;;;0.85;;
52512;SDS011;38422;53.172;6.974;2023-08-06T13:38:49;2.13;;;0.80;;
52512;SDS011;38422;53.172;6.974;2023-08-06T13:41:15;2.43;;;0.90;;
52512;SDS011;38422;53.172;6.974;2023-08-06T13:43:41;1.75;;;1.10;;
52512;SDS011;38422;53.172;6.974;2023-08-06T13:46:09;1.85;;;0.98;;
52512;SDS011;38422;53.172;6.974;2023-08-06T13:48:40;1.10;;;0.75;;
52512;SDS011;38422;53.172;6.974;2023-08-06T13:51:05;1.45;;;0.95;;
52512;SDS011;38422;53.172;6.974;2023-08-06T13:53:31;1.53;;;0.80;;
52512;SDS011;38422;53.172;6.974;2023-08-06T13:55:57;1.67;;;0.87;;
52512;SDS011;38422;53.172;6.974;2023-08-06T13:58:23;1.67;;;0.87;;
52512;SDS011;38422;53.172;6.974;2023-08-06T14:00:50;1.08;;;0.70;;
52512;SDS011;38422;53.172;6.974;2023-08-06T14:03:18;1.10;;;1.00;;
52512;SDS011;38422;53.172;6.974;2023-08-06T14:05:44;1.48;;;1.00;;
52512;SDS011;38422;53.172;6.974;2023-08-06T14:08:09;0.97;;;0.80;;
52512;SDS011;38422;53.172;6.974;2023-08-06T14:10:35;1.50;;;1.00;;
52512;SDS011;38422;53.172;6.974;2023-08-06T14:13:01;1.70;;;1.00;;
52512;SDS011;38422;53.172;6.974;2023-08-06T14:15:27;2.43;;;0.90;;
52512;SDS011;38422;53.172;6.974;2023-08-06T14:17:52;1.60;;;0.90;;
52512;SDS011;38422;53.172;6.974;2023-08-06T14:20:18;2.67;;;0.90;;
52512;SDS011;38422;53.172;6.974;2023-08-06T14:22:44;1.30;;;0.90;;
52512;SDS011;38422;53.172;6.974;2023-08-06T14:25:09;3.23;;;1.03;;
52512;SDS011;38422;53.172;6.974;2023-08-06T14:27:35;1.07;;;0.77;;
52512;SDS011;38422;53.172;6.974;2023-08-06T14:30:01;1.60;;;0.80;;
52512;SDS011;38422;53.172;6.974;2023-08-06T14:32:29;1.77;;;0.90;;
52512;SDS011;38422;53.172;6.974;2023-08-06T14:34:55;1.42;;;0.80;;
52512;SDS011;38422;53.172;6.974;2023-08-06T14:37:20;3.47;;;0.97;;
52512;SDS011;38422;53.172;6.974;2023-08-06T14:39:46;1.60;;;0.70;;
52512;SDS011;38422;53.172;6.974;2023-08-06T14:42:12;1.42;;;0.93;;
52512;SDS011;38422;53.172;6.974;2023-08-06T14:44:38;1.63;;;0.90;;
52512;SDS011;38422;53.172;6.974;2023-08-06T14:47:04;3.50;;;1.15;;
52512;SDS011;38422;53.172;6.974;2023-08-06T14:49:29;1.55;;;1.00;;
52512;SDS011;38422;53.172;6.974;2023-08-06T14:51:55;2.40;;;1.20;;
52512;SDS011;38422;53.172;6.974;2023-08-06T14:54:24;1.83;;;1.00;;
52512;SDS011;38422;53.172;6.974;2023-08-06T14:56:50;2.33;;;1.00;;
52512;SDS011;38422;53.172;6.974;2023-08-06T14:59:15;1.57;;;1.00;;
52512;SDS011;38422;53.172;6.974;2023-08-06T15:01:41;2.67;;;1.10;;
52512;SDS011;38422;53.172;6.974;2023-08-06T15:04:07;1.27;;;0.80;;
52512;SDS011;38422;53.172;6.974;2023-08-06T15:06:32;1.80;;;1.10;;
52512;SDS011;38422;53.172;6.974;2023-08-06T15:08:58;1.47;;;1.00;;